Naples, FL (34116)

1:24 PM EST on February 12, 2016 (GMT -0500)
Marbella Lakes | | Change Station
CLOSE
Current Station
Personal Weather Station
Location: Naples, FL
Elevation: 16 ft
Nearby Weather Stations

Elev 16 ft 26.20 °N, 81.75 °W | Updated 4 minutes ago

Clear
Clear
79.5 °F
Feels Like 79 °F
N
3.2
Wind Variable Wind from NNW

Today
High -- | Low -- °F
--% Chance of Precip.
Yesterday
High -- | Low -- °F
Precip. -- in
Pressure 30.27 in
Visibility 10.0 miles
Clouds Clear
Heat Index 79 °F
Dew Point 50 °F
Humidity 36%
Rainfall 0.00 in
Snow Depth Not available.
7:04 AM 6:17 PM
Waxing Crescent, 22% visible
METAR KAPF 121753Z 24007KT 10SM CLR 22/09 A3028 RMK AO2 SLP251 T02170094 10222 20089 58016
Pressure 30.27 in
Visibility 10.0 miles
Clouds Clear
Heat Index 79 °F
Dew Point 50 °F
Humidity 36%
Rainfall 0.00 in
Snow Depth Not available.
7:04 AM 6:17 PM
Waxing Crescent, 22% visible
METAR KAPF 121753Z 24007KT 10SM CLR 22/09 A3028 RMK AO2 SLP251 T02170094 10222 20089 58016

10-Day Weather Forecast

Almanac

Astronomy

Feb. 12, 2016 Rise Set
Actual Time
Civil Twilight
Nautical Twilight
Astronomical Twilight
Moon
Length of Visible Light
Length of Day
Tomorrow will be .
, % of the Moon is Illuminated

Today's Extremes

State Highs State Lows

Community

WunderPhotos

Upload Photos

1,892,364 photos uploaded!

WunderBlog® & News

Nearby

Air Quality

  Air Quality AQ Index Pollutant
Not available.

Snow Depth

Station Depth Elevation

Earthquake Activity

City Distance Mag. Time & Date
Minimum magnitude displayed is 2.5.

Coastal Water Temperatures

Place Temperature

Stations

Nearby Weather Stations

Station Location Temp. Windchill Dew Point Humidity Wind Precip. Elev Updated Type
                   

Watches & Warnings

There are currently no watches in effect.